Time;durP1;ratioP1;P1;durP2;ratioP2;P2;SDS_P1;SDS_P2;PMS_P1;PMS_P2;Temp;Humidity;BMP_temperature;BMP_pressure;BME280_temperature;BME280_humidity;BME280_pressure;Samples;Min_cycle;Max_cycle;Signal;HPM_P1;HPM_P2
2024/02/17 00:02:03;;;;;;;8.93;6.03;;;11.30;99.90;;;;;;5017359;28;20194;-85
2024/02/17 00:04:28;;;;;;;9.38;5.93;;;11.30;99.90;;;;;;5026929;28;20226;-85
2024/02/17 00:06:55;;;;;;;8.40;6.07;;;11.30;99.90;;;;;;5038826;28;20177;-85
2024/02/17 00:09:21;;;;;;;8.98;5.63;;;11.30;99.90;;;;;;5023375;28;20190;-85
2024/02/17 00:11:47;;;;;;;7.35;6.13;;;11.30;99.90;;;;;;5016299;28;20240;-85
2024/02/17 00:14:13;;;;;;;7.07;5.80;;;11.20;99.90;;;;;;5005902;28;20197;-85
2024/02/17 00:16:39;;;;;;;8.10;6.13;;;11.30;99.90;;;;;;5024114;28;20552;-85
2024/02/17 00:19:04;;;;;;;8.68;6.18;;;11.30;99.90;;;;;;5012881;28;20183;-84
2024/02/17 00:21:30;;;;;;;10.63;6.55;;;11.30;99.90;;;;;;5025843;28;20186;-85
2024/02/17 00:23:56;;;;;;;7.53;6.43;;;11.20;99.90;;;;;;5033901;28;20202;-85
2024/02/17 00:26:22;;;;;;;9.55;6.38;;;11.20;99.90;;;;;;5012729;28;20279;-85
2024/02/17 00:28:48;;;;;;;10.35;6.75;;;11.20;99.90;;;;;;5011254;28;20185;-85
2024/02/17 00:31:14;;;;;;;9.27;6.95;;;11.10;99.90;;;;;;5020072;28;20182;-85
2024/02/17 00:33:39;;;;;;;13.77;7.13;;;11.10;99.90;;;;;;5025322;28;20182;-85
2024/02/17 00:36:05;;;;;;;10.50;7.22;;;11.00;99.90;;;;;;5035613;28;20187;-86
2024/02/17 00:38:31;;;;;;;13.10;7.68;;;11.00;99.90;;;;;;5018782;28;20197;-85
2024/02/17 00:41:01;;;;;;;10.50;7.38;;;11.00;99.90;;;;;;5032634;28;20194;-85
2024/02/17 00:43:27;;;;;;;10.63;7.65;;;11.00;99.90;;;;;;5014357;28;20309;-85
2024/02/17 00:45:53;;;;;;;11.20;7.95;;;11.00;99.90;;;;;;5013690;28;20658;-85
2024/02/17 00:48:19;;;;;;;13.02;8.77;;;11.00;99.90;;;;;;5026681;28;20652;-85
2024/02/17 00:50:46;;;;;;;13.43;9.20;;;11.00;99.90;;;;;;5033982;28;20205;-86
2024/02/17 00:53:11;;;;;;;13.95;9.85;;;10.90;99.90;;;;;;5033813;28;21066;-85
2024/02/17 00:55:37;;;;;;;16.17;9.77;;;10.90;99.90;;;;;;5033538;28;20266;-84
2024/02/17 00:58:03;;;;;;;13.80;10.13;;;10.90;99.90;;;;;;5036494;28;20205;-85
2024/02/17 01:00:29;;;;;;;17.40;10.30;;;10.90;99.90;;;;;;5025063;28;20182;-85
2024/02/17 01:02:55;;;;;;;14.40;9.95;;;10.90;99.90;;;;;;5016100;28;20233;-85
2024/02/17 01:05:22;;;;;;;17.80;9.85;;;10.90;99.90;;;;;;5031878;28;20684;-84
2024/02/17 01:07:48;;;;;;;12.82;8.43;;;10.90;99.90;;;;;;5018574;28;20294;-85
2024/02/17 01:10:14;;;;;;;13.63;8.73;;;10.90;99.90;;;;;;5016226;28;20530;-86
2024/02/17 01:12:40;;;;;;;15.70;10.07;;;10.90;99.90;;;;;;5032870;28;20178;-86
2024/02/17 01:15:08;;;;;;;14.45;9.10;;;11.00;99.90;;;;;;5036356;28;20189;-86
2024/02/17 01:17:33;;;;;;;16.92;10.35;;;11.00;99.90;;;;;;5013320;28;20190;-86
2024/02/17 01:19:59;;;;;;;13.73;9.18;;;11.00;99.90;;;;;;5033830;28;20253;-86
2024/02/17 01:22:25;;;;;;;13.82;9.43;;;11.00;99.90;;;;;;5016865;28;20197;-86
2024/02/17 01:24:50;;;;;;;13.40;9.38;;;11.00;99.90;;;;;;5022774;28;20214;-86
2024/02/17 01:27:16;;;;;;;12.68;9.32;;;11.00;99.90;;;;;;5026885;28;20203;-85
2024/02/17 01:29:42;;;;;;;15.32;10.68;;;11.00;99.90;;;;;;5033675;28;20708;-85
2024/02/17 01:32:10;;;;;;;15.20;9.88;;;11.00;99.90;;;;;;5033683;28;20515;-86
2024/02/17 01:34:35;;;;;;;15.40;10.27;;;10.90;99.90;;;;;;5013194;28;20182;-85
2024/02/17 01:37:01;;;;;;;17.52;10.45;;;10.90;99.90;;;;;;5019656;28;20182;-85
2024/02/17 01:39:30;;;;;;;19.40;11.07;;;10.90;99.90;;;;;;5040163;28;20191;-85
2024/02/17 01:41:56;;;;;;;15.43;10.57;;;10.90;99.90;;;;;;5033773;28;20190;-85
2024/02/17 01:44:22;;;;;;;16.30;10.07;;;10.90;99.90;;;;;;5015872;28;20226;-85
2024/02/17 01:46:51;;;;;;;16.13;10.85;;;11.00;99.90;;;;;;5018037;28;20538;-86
2024/02/17 01:49:17;;;;;;;13.52;10.18;;;11.00;99.90;;;;;;5033478;28;20197;-85
2024/02/17 01:51:45;;;;;;;13.70;9.57;;;11.00;99.90;;;;;;5015726;28;20182;-86
2024/02/17 01:54:13;;;;;;;13.95;10.25;;;11.00;99.90;;;;;;5025245;28;20184;-86
2024/02/17 01:56:40;;;;;;;17.50;10.40;;;11.00;99.90;;;;;;5016061;28;20230;-86
2024/02/17 01:59:07;;;;;;;15.38;10.30;;;11.00;99.90;;;;;;5012563;28;20264;-85
2024/02/17 02:01:33;;;;;;;16.92;10.57;;;10.90;99.90;;;;;;5015053;28;20281;-86
2024/02/17 02:03:59;;;;;;;16.65;11.82;;;10.90;99.90;;;;;;5018137;28;20264;-86
2024/02/17 02:06:26;;;;;;;15.05;11.27;;;10.90;99.90;;;;;;5035380;28;20190;-85
2024/02/17 02:08:52;;;;;;;16.88;11.75;;;10.80;99.90;;;;;;5039731;28;20544;-85
2024/02/17 02:11:19;;;;;;;16.05;11.65;;;10.90;99.90;;;;;;5038624;28;20175;-85
2024/02/17 02:13:45;;;;;;;13.68;10.75;;;10.90;99.90;;;;;;5030765;28;20191;-85
2024/02/17 02:16:11;;;;;;;15.75;10.98;;;10.90;99.90;;;;;;5021490;28;20181;-85
2024/02/17 02:18:36;;;;;;;14.75;10.30;;;10.80;99.90;;;;;;5029323;28;20715;-86
2024/02/17 02:21:04;;;;;;;15.82;10.40;;;10.80;99.90;;;;;;5033278;28;20183;-86
2024/02/17 02:23:31;;;;;;;14.32;10.18;;;10.60;99.90;;;;;;5011218;28;20560;-86
2024/02/17 02:25:57;;;;;;;13.77;10.30;;;10.50;99.90;;;;;;5039114;28;20282;-85
2024/02/17 02:28:23;;;;;;;16.25;10.43;;;10.50;99.90;;;;;;5037107;28;20186;-86
2024/02/17 02:30:52;;;;;;;14.20;10.13;;;10.50;99.90;;;;;;5018298;28;20235;-86
2024/02/17 02:33:18;;;;;;;14.65;9.57;;;10.50;99.90;;;;;;5018515;28;20336;-86
2024/02/17 02:35:45;;;;;;;14.07;9.63;;;10.50;99.90;;;;;;5039612;28;20644;-86
2024/02/17 02:38:11;;;;;;;17.48;9.80;;;10.40;99.90;;;;;;5025879;28;20324;-86
2024/02/17 02:40:36;;;;;;;15.38;10.38;;;10.40;99.90;;;;;;5036540;28;20217;-86
2024/02/17 02:43:03;;;;;;;15.55;10.32;;;10.30;99.90;;;;;;5036295;28;20201;-85
2024/02/17 02:45:30;;;;;;;13.85;9.95;;;10.30;99.90;;;;;;5009294;28;20259;-86
2024/02/17 02:47:56;;;;;;;15.15;10.05;;;10.30;99.90;;;;;;5026386;28;20376;-86
2024/02/17 02:50:22;;;;;;;17.42;10.65;;;10.10;99.90;;;;;;5015361;28;20236;-85
2024/02/17 02:52:49;;;;;;;14.55;10.65;;;10.20;99.90;;;;;;5022485;28;20182;-86
2024/02/17 02:55:14;;;;;;;15.05;10.40;;;10.10;99.90;;;;;;5009874;28;20186;-85
2024/02/17 02:57:40;;;;;;;13.10;9.82;;;10.10;99.90;;;;;;5013203;28;20237;-85
2024/02/17 03:00:07;;;;;;;12.85;9.27;;;10.20;99.90;;;;;;5014202;28;20193;-86
2024/02/17 03:02:34;;;;;;;14.15;9.00;;;10.10;99.90;;;;;;5018160;28;20186;-86
2024/02/17 03:05:00;;;;;;;13.45;9.18;;;10.10;99.90;;;;;;5014765;28;20612;-85
2024/02/17 03:07:28;;;;;;;12.07;8.82;;;10.00;99.90;;;;;;5019853;28;20206;-86
2024/02/17 03:09:53;;;;;;;13.85;9.57;;;10.00;99.90;;;;;;5040529;28;20179;-86
2024/02/17 03:12:19;;;;;;;13.30;9.73;;;10.00;99.90;;;;;;5034533;28;20186;-85
2024/02/17 03:14:45;;;;;;;13.48;9.38;;;10.10;99.90;;;;;;5010940;28;20236;-85
2024/02/17 03:17:11;;;;;;;12.73;9.07;;;10.20;99.90;;;;;;5037262;28;20228;-86
2024/02/17 03:19:37;;;;;;;12.52;9.13;;;10.10;99.90;;;;;;5018041;28;20186;-86
2024/02/17 03:22:03;;;;;;;13.57;9.25;;;10.10;99.90;;;;;;5017963;28;20304;-86
2024/02/17 03:24:28;;;;;;;16.02;9.85;;;10.20;99.90;;;;;;5017802;28;20221;-86
2024/02/17 03:26:54;;;;;;;14.45;9.98;;;10.20;99.90;;;;;;5009671;28;20234;-86
2024/02/17 03:29:20;;;;;;;15.90;9.40;;;10.20;99.90;;;;;;5035216;28;20182;-86
2024/02/17 03:31:46;;;;;;;15.77;10.40;;;10.10;99.90;;;;;;5035327;28;20182;-86
2024/02/17 03:34:11;;;;;;;15.43;10.20;;;10.10;99.90;;;;;;5021894;28;20247;-86
2024/02/17 03:36:37;;;;;;;17.98;10.50;;;10.10;99.90;;;;;;5027019;28;20193;-85
2024/02/17 03:39:06;;;;;;;15.10;10.38;;;10.10;99.90;;;;;;5025134;28;20186;-86
2024/02/17 03:44:13;;;;;;;18.20;11.77;;;10.00;99.90;;;;;;5425230;22;20244;-88
2024/02/17 03:46:39;;;;;;;19.08;11.40;;;10.00;99.90;;;;;;5061404;28;20181;-88
2024/02/17 03:49:04;;;;;;;15.50;11.65;;;10.00;99.90;;;;;;5056192;28;20189;-87
2024/02/17 03:51:30;;;;;;;18.45;12.25;;;10.00;99.90;;;;;;5067396;28;20173;-89
2024/02/17 03:53:56;;;;;;;17.90;12.00;;;10.00;99.90;;;;;;5056622;28;20189;-87
2024/02/17 03:56:22;;;;;;;17.58;12.38;;;9.90;99.90;;;;;;5048470;28;20177;-87
2024/02/17 03:58:48;;;;;;;18.88;13.10;;;9.90;99.90;;;;;;5049801;28;20190;-88
2024/02/17 04:01:14;;;;;;;19.98;12.57;;;9.90;99.90;;;;;;5067411;28;20180;-88
2024/02/17 04:03:39;;;;;;;17.00;11.75;;;9.90;99.90;;;;;;5060582;28;20262;-87
2024/02/17 04:06:13;;;;;;;18.50;11.82;;;10.00;99.90;;;;;;5058484;28;20173;-87
2024/02/17 04:08:39;;;;;;;20.08;12.23;;;10.00;99.90;;;;;;5044811;28;20181;-86
2024/02/17 04:11:07;;;;;;;17.55;11.93;;;10.00;99.90;;;;;;5052228;28;20599;-86
2024/02/17 04:13:32;;;;;;;21.13;12.02;;;10.00;99.90;;;;;;5069210;28;20177;-87
2024/02/17 04:16:11;;;;;;;15.68;11.57;;;10.00;99.90;;;;;;5057734;28;20189;-89
2024/02/17 04:18:37;;;;;;;19.52;11.15;;;10.00;99.90;;;;;;5044873;28;20177;-88
2024/02/17 04:21:03;;;;;;;16.17;11.50;;;10.10;99.90;;;;;;5069206;28;20181;-88
2024/02/17 04:23:30;;;;;;;17.08;11.50;;;10.10;99.90;;;;;;5055065;28;20205;-87
2024/02/17 04:26:05;;;;;;;29.05;11.32;;;10.00;99.90;;;;;;5057488;28;20217;-85
2024/02/17 04:28:33;;;;;;;16.33;10.40;;;10.00;99.90;;;;;;5056996;28;20522;-86
2024/02/17 04:30:58;;;;;;;17.77;11.60;;;10.00;99.90;;;;;;5056972;28;20208;-87
2024/02/17 04:33:24;;;;;;;12.35;9.45;;;9.90;99.90;;;;;;5046627;28;20226;-86
2024/02/17 04:35:54;;;;;;;14.77;10.05;;;9.90;99.90;;;;;;5055199;28;20173;-86
2024/02/17 04:38:20;;;;;;;15.05;9.35;;;9.80;99.90;;;;;;5045270;28;20188;-85
2024/02/17 04:40:46;;;;;;;14.95;9.02;;;9.90;99.90;;;;;;5051187;28;20201;-88
2024/02/17 04:43:12;;;;;;;14.75;9.05;;;9.80;99.90;;;;;;5072943;28;20247;-88
2024/02/17 04:45:39;;;;;;;13.23;8.50;;;9.90;99.90;;;;;;5052174;28;20242;-88
2024/02/17 04:48:06;;;;;;;14.38;9.00;;;9.80;99.90;;;;;;5045097;28;20197;-87
2024/02/17 04:50:32;;;;;;;15.23;8.90;;;9.90;99.90;;;;;;5037426;28;20177;-86
2024/02/17 04:52:57;;;;;;;11.48;8.00;;;9.90;99.90;;;;;;5049396;28;20265;-87
2024/02/17 04:55:30;;;;;;;11.40;7.70;;;9.90;99.90;;;;;;5063811;28;20385;-87
2024/02/17 04:57:57;;;;;;;11.50;7.75;;;9.80;99.90;;;;;;5041916;28;20217;-87
2024/02/17 05:00:23;;;;;;;11.27;7.97;;;9.80;99.90;;;;;;5039689;28;20182;-88
2024/02/17 05:02:49;;;;;;;11.15;7.03;;;9.70;99.90;;;;;;5048829;28;20634;-89
2024/02/17 05:05:23;;;;;;;13.52;8.25;;;9.70;99.90;;;;;;5054159;28;20217;-88
2024/02/17 05:07:49;;;;;;;16.00;8.65;;;9.70;99.90;;;;;;5057332;28;20188;-89
2024/02/17 05:10:14;;;;;;;10.82;7.20;;;9.70;99.90;;;;;;5056853;28;20189;-88
2024/02/17 05:12:40;;;;;;;10.68;7.22;;;9.60;99.90;;;;;;5057253;28;20176;-89
2024/02/17 05:15:08;;;;;;;12.18;7.30;;;9.60;99.90;;;;;;5062023;28;20177;-88
2024/02/17 05:17:35;;;;;;;12.48;7.40;;;9.60;99.90;;;;;;5054897;28;20190;-89
2024/02/17 05:20:01;;;;;;;11.15;6.93;;;9.70;99.90;;;;;;5044918;28;20519;-89
2024/02/17 05:22:27;;;;;;;11.82;7.05;;;9.70;99.90;;;;;;5046196;28;20205;-89
2024/02/17 05:24:54;;;;;;;11.57;7.07;;;9.70;99.90;;;;;;5078938;28;20631;-88
2024/02/17 05:27:20;;;;;;;12.32;7.13;;;9.70;99.90;;;;;;5067897;28;20173;-89
2024/02/17 05:29:46;;;;;;;11.50;7.43;;;9.70;99.90;;;;;;5074446;28;20225;-88
2024/02/17 05:32:12;;;;;;;9.75;7.28;;;9.70;99.90;;;;;;5072562;28;20661;-87
2024/02/17 05:34:39;;;;;;;9.90;7.13;;;9.70;99.90;;;;;;5074535;28;20291;-89
2024/02/17 05:37:06;;;;;;;14.20;6.97;;;9.70;99.90;;;;;;5057137;28;20181;-88
2024/02/17 05:39:32;;;;;;;11.05;6.28;;;9.80;99.90;;;;;;5056232;28;20188;-88
2024/02/17 05:41:59;;;;;;;12.57;6.80;;;9.70;99.90;;;;;;5067463;28;20170;-88
2024/02/17 05:44:25;;;;;;;13.25;6.75;;;9.70;99.90;;;;;;5053841;28;20229;-88
2024/02/17 05:46:52;;;;;;;14.73;6.45;;;9.70;99.90;;;;;;5048253;28;20202;-87
2024/02/17 05:49:21;;;;;;;11.30;7.25;;;9.60;99.90;;;;;;5043581;28;20210;-86
2024/02/17 05:51:48;;;;;;;12.05;7.00;;;9.70;99.90;;;;;;5053566;28;20182;-88
2024/02/17 05:54:15;;;;;;;11.88;6.70;;;9.70;99.90;;;;;;5047524;28;20216;-88
2024/02/17 05:56:41;;;;;;;12.98;6.75;;;9.60;99.90;;;;;;5055256;28;20186;-88
2024/02/17 05:59:07;;;;;;;13.55;7.40;;;9.70;99.90;;;;;;5056647;28;20258;-87
2024/02/17 06:01:32;;;;;;;11.15;7.45;;;9.70;99.90;;;;;;5053200;28;20192;-90
2024/02/17 06:03:58;;;;;;;11.82;7.00;;;9.70;99.90;;;;;;5052194;28;20543;-88
2024/02/17 06:06:26;;;;;;;12.05;7.80;;;9.70;99.90;;;;;;5055490;28;20178;-87
2024/02/17 06:08:52;;;;;;;15.85;7.25;;;9.60;99.90;;;;;;5045498;28;20244;-88
2024/02/17 06:11:18;;;;;;;14.27;7.57;;;9.60;99.90;;;;;;5055428;28;20201;-88
2024/02/17 06:13:44;;;;;;;10.38;6.95;;;9.70;99.90;;;;;;5050989;28;20214;-88
2024/02/17 06:16:18;;;;;;;12.23;7.43;;;9.60;99.90;;;;;;5057089;28;20234;-88
2024/02/17 06:21:31;;;;;;;10.55;7.22;;;9.60;99.90;;;;;;5050616;28;20232;-89
2024/02/17 06:23:58;;;;;;;10.35;7.22;;;9.50;99.90;;;;;;5052653;28;20648;-88
2024/02/17 06:26:32;;;;;;;12.18;7.70;;;9.50;99.90;;;;;;5048684;28;20226;-87
2024/02/17 06:29:03;;;;;;;11.60;7.15;;;9.50;99.90;;;;;;5057856;28;20181;-88
2024/02/17 06:31:29;;;;;;;11.18;7.13;;;9.60;99.90;;;;;;5048174;28;20170;-87
2024/02/17 06:33:56;;;;;;;13.55;7.88;;;9.60;99.90;;;;;;5048383;28;20228;-88
2024/02/17 06:36:22;;;;;;;11.80;7.40;;;9.70;99.90;;;;;;5048221;28;20188;-90
2024/02/17 06:38:51;;;;;;;12.73;7.18;;;9.60;99.90;;;;;;5044058;28;20624;-89
2024/02/17 06:41:21;;;;;;;10.10;6.97;;;9.60;99.90;;;;;;5054616;28;20255;-88
2024/02/17 06:43:52;;;;;;;12.50;6.55;;;9.60;99.90;;;;;;5064385;28;20241;-88
2024/02/17 06:46:21;;;;;;;10.93;7.03;;;9.60;99.90;;;;;;5059268;28;20187;-89
2024/02/17 06:48:50;;;;;;;11.20;7.15;;;9.60;99.90;;;;;;5071616;28;20190;-88
2024/02/17 06:51:17;;;;;;;9.93;6.97;;;9.60;99.90;;;;;;5047952;28;20192;-89
2024/02/17 06:53:44;;;;;;;11.70;7.25;;;9.60;99.90;;;;;;5052224;28;20177;-87
2024/02/17 06:56:11;;;;;;;16.00;7.05;;;9.60;99.90;;;;;;5068902;28;20219;-87
2024/02/17 06:58:37;;;;;;;11.38;6.82;;;9.60;99.90;;;;;;5072303;28;20264;-87
2024/02/17 07:01:03;;;;;;;12.00;6.93;;;9.70;99.90;;;;;;5077128;28;20604;-87
2024/02/17 07:03:32;;;;;;;9.38;6.20;;;9.70;99.90;;;;;;5062312;28;20264;-88
2024/02/17 07:05:59;;;;;;;9.88;6.78;;;9.60;99.90;;;;;;5038911;28;20239;-87
2024/02/17 07:08:26;;;;;;;9.20;5.75;;;9.60;99.90;;;;;;5071717;28;20201;-87
2024/02/17 07:10:52;;;;;;;7.70;5.60;;;9.60;99.90;;;;;;5053033;28;20170;-88
2024/02/17 07:13:18;;;;;;;12.38;6.28;;;9.60;99.90;;;;;;5055338;28;20185;-88
2024/02/17 07:15:45;;;;;;;12.15;6.00;;;9.60;99.90;;;;;;5063306;28;20188;-85
2024/02/17 07:18:14;;;;;;;9.75;5.97;;;9.60;99.90;;;;;;5059234;28;20192;-88
2024/02/17 07:20:41;;;;;;;9.02;5.57;;;9.60;99.90;;;;;;5056398;28;20178;-88
2024/02/17 07:23:07;;;;;;;8.90;5.07;;;9.60;99.90;;;;;;5071517;28;20276;-87
2024/02/17 07:25:34;;;;;;;8.18;4.55;;;9.60;99.90;;;;;;5059501;28;20322;-87
2024/02/17 07:28:02;;;;;;;4.53;3.70;;;9.60;99.90;;;;;;5063695;28;20263;-88
2024/02/17 07:30:28;;;;;;;8.15;3.17;;;9.60;99.90;;;;;;5073386;28;20177;-89
2024/02/17 07:32:54;;;;;;;4.88;2.95;;;9.60;99.90;;;;;;5073616;28;20196;-89
2024/02/17 07:35:22;;;;;;;5.55;2.10;;;9.60;99.90;;;;;;5049578;28;20205;-87
2024/02/17 07:37:48;;;;;;;5.60;2.63;;;9.60;99.90;;;;;;5044533;28;20501;-89
2024/02/17 07:40:14;;;;;;;4.55;2.25;;;9.50;99.90;;;;;;5054301;28;20203;-89
2024/02/17 07:42:40;;;;;;;3.88;2.28;;;9.50;99.90;;;;;;5054106;28;20177;-88
2024/02/17 07:45:06;;;;;;;4.35;2.10;;;9.60;99.90;;;;;;5070722;28;20237;-87
2024/02/17 07:47:36;;;;;;;6.93;2.75;;;9.50;99.90;;;;;;5052312;28;20608;-88
2024/02/17 07:50:04;;;;;;;6.28;2.35;;;9.60;99.90;;;;;;5071356;28;20191;-88
2024/02/17 07:52:30;;;;;;;4.25;1.92;;;9.50;99.90;;;;;;5071260;28;20208;-88
2024/02/17 07:54:56;;;;;;;4.85;2.00;;;9.50;99.90;;;;;;5060160;28;20189;-88
2024/02/17 07:57:23;;;;;;;5.47;2.25;;;9.60;99.90;;;;;;5061527;28;20177;-89
2024/02/17 07:59:48;;;;;;;3.67;1.80;;;9.50;99.90;;;;;;5059717;28;20204;-87
2024/02/17 08:02:14;;;;;;;3.75;2.10;;;9.50;99.90;;;;;;5068542;28;20178;-87
2024/02/17 08:04:42;;;;;;;5.07;2.13;;;9.50;99.90;;;;;;5070392;28;20604;-86
2024/02/17 08:07:15;;;;;;;7.32;2.05;;;9.50;99.90;;;;;;5052004;28;20186;-88
2024/02/17 08:09:41;;;;;;;2.88;1.98;;;9.50;99.90;;;;;;5067611;28;20181;-88
2024/02/17 08:12:10;;;;;;;5.43;2.25;;;9.60;99.90;;;;;;5073015;28;20173;-87
2024/02/17 08:14:36;;;;;;;7.90;2.72;;;9.60;99.90;;;;;;5063017;28;20174;-88
2024/02/17 08:17:02;;;;;;;7.75;2.55;;;9.60;99.90;;;;;;5037367;28;20189;-89
2024/02/17 08:19:28;;;;;;;5.30;2.45;;;9.50;99.90;;;;;;5052644;28;20263;-88
2024/02/17 08:21:54;;;;;;;4.78;1.90;;;9.50;99.90;;;;;;5062673;28;20184;-90
2024/02/17 08:24:19;;;;;;;2.60;1.95;;;9.60;99.90;;;;;;5049689;28;20255;-90
2024/02/17 08:26:45;;;;;;;3.03;1.60;;;9.60;99.90;;;;;;5072452;28;20204;-90
2024/02/17 08:29:11;;;;;;;3.90;1.60;;;9.70;99.90;;;;;;5069463;28;20207;-89
2024/02/17 08:31:37;;;;;;;3.13;1.90;;;9.60;99.90;;;;;;5045111;28;20646;-90
2024/02/17 08:34:02;;;;;;;2.03;1.48;;;9.60;99.90;;;;;;5053802;28;20205;-89
2024/02/17 08:36:28;;;;;;;4.47;1.40;;;9.70;99.90;;;;;;5050286;28;20181;-89
2024/02/17 08:38:54;;;;;;;2.95;1.70;;;9.70;99.90;;;;;;5060041;28;20204;-90
2024/02/17 08:41:21;;;;;;;3.92;1.80;;;9.70;99.90;;;;;;5067315;28;20181;-88
2024/02/17 08:43:49;;;;;;;3.28;1.40;;;9.70;99.90;;;;;;5061920;28;20268;-90
2024/02/17 08:46:16;;;;;;;7.80;2.03;;;9.70;99.90;;;;;;5045208;28;20185;-91
2024/02/17 08:48:51;;;;;;;5.65;1.80;;;9.60;99.90;;;;;;5051984;28;20589;-89
2024/02/17 08:51:17;;;;;;;2.83;2.17;;;9.70;99.90;;;;;;5059087;28;20243;-89
2024/02/17 08:53:43;;;;;;;4.65;2.10;;;9.70;99.90;;;;;;5065262;28;20174;-89
2024/02/17 08:56:09;;;;;;;3.22;1.83;;;9.70;99.90;;;;;;5073101;28;20203;-89
2024/02/17 08:58:37;;;;;;;5.82;2.10;;;9.70;99.90;;;;;;5057897;28;20329;-89
2024/02/17 09:01:02;;;;;;;4.05;1.88;;;9.60;99.90;;;;;;5069050;28;20185;-88
2024/02/17 09:03:30;;;;;;;2.60;1.73;;;9.70;99.90;;;;;;5066371;28;20212;-89
2024/02/17 09:05:55;;;;;;;3.40;2.00;;;9.70;99.90;;;;;;5049688;28;20188;-90
2024/02/17 09:08:21;;;;;;;6.85;2.42;;;9.70;99.90;;;;;;5053276;28;20189;-89
2024/02/17 09:10:47;;;;;;;7.05;2.28;;;9.70;99.90;;;;;;5080926;28;20619;-90
2024/02/17 09:13:13;;;;;;;7.57;2.47;;;9.70;99.90;;;;;;5072136;28;20252;-90
2024/02/17 09:15:39;;;;;;;3.65;2.05;;;9.60;99.90;;;;;;5061716;28;20174;-89
2024/02/17 09:18:04;;;;;;;5.00;2.25;;;9.70;99.90;;;;;;5071465;28;20177;-89
2024/02/17 09:20:30;;;;;;;7.03;2.13;;;9.70;99.90;;;;;;5048743;28;20184;-90
2024/02/17 09:22:56;;;;;;;3.63;2.10;;;9.70;99.90;;;;;;5056034;28;20172;-89
2024/02/17 09:25:22;;;;;;;6.22;2.50;;;9.80;99.90;;;;;;5056714;28;20213;-90
2024/02/17 09:27:47;;;;;;;7.72;2.38;;;9.80;99.90;;;;;;5047393;28;20260;-90
2024/02/17 09:30:14;;;;;;;4.07;2.50;;;9.80;99.90;;;;;;5048534;28;20185;-90
2024/02/17 09:32:40;;;;;;;4.18;2.60;;;9.70;99.90;;;;;;5064838;28;20169;-89
2024/02/17 09:35:06;;;;;;;3.45;2.20;;;9.80;99.90;;;;;;5044244;28;20193;-89
2024/02/17 09:37:32;;;;;;;5.13;1.92;;;9.70;99.90;;;;;;5041174;28;20182;-90
2024/02/17 09:39:59;;;;;;;4.15;2.58;;;9.80;99.90;;;;;;5057339;28;20173;-90
2024/02/17 09:42:25;;;;;;;3.70;2.20;;;9.70;99.90;;;;;;5050903;28;20238;-89
2024/02/17 09:44:51;;;;;;;7.63;2.13;;;9.70;99.90;;;;;;5060522;28;20258;-89
2024/02/17 09:47:17;;;;;;;5.15;2.25;;;9.70;99.90;;;;;;5052997;28;20182;-90
2024/02/17 09:49:55;;;;;;;3.95;1.98;;;9.60;99.90;;;;;;5070643;28;20200;-88
2024/02/17 09:52:21;;;;;;;3.65;1.77;;;9.60;99.90;;;;;;5043753;28;20178;-88
2024/02/17 09:54:47;;;;;;;5.28;2.10;;;9.60;99.90;;;;;;5058507;28;20189;-89
2024/02/17 09:57:13;;;;;;;5.18;1.73;;;9.60;99.90;;;;;;5067045;28;20186;-90
2024/02/17 09:59:39;;;;;;;5.03;1.48;;;9.60;99.90;;;;;;5072701;28;20178;-88
2024/02/17 10:02:08;;;;;;;3.55;1.55;;;9.60;99.90;;;;;;5044121;28;20210;-89
2024/02/17 10:04:34;;;;;;;2.45;1.38;;;9.60;99.90;;;;;;5062910;28;20241;-90
2024/02/17 10:07:03;;;;;;;3.42;1.70;;;9.60;99.90;;;;;;5074371;28;20201;-90
2024/02/17 10:09:34;;;;;;;7.78;2.03;;;9.70;99.90;;;;;;5060223;28;20192;-88
2024/02/17 10:12:00;;;;;;;3.47;1.60;;;9.80;99.90;;;;;;5073387;28;20638;-90
2024/02/17 10:14:29;;;;;;;3.17;1.60;;;9.80;99.90;;;;;;5059750;28;20267;-89
2024/02/17 10:17:00;;;;;;;2.53;1.60;;;9.90;99.90;;;;;;5063755;28;20168;-88
2024/02/17 10:19:26;;;;;;;4.00;1.50;;;10.00;99.90;;;;;;5041996;28;20209;-89
2024/02/17 10:21:53;;;;;;;3.35;1.23;;;10.10;99.90;;;;;;5053457;28;20176;-90
2024/02/17 10:24:21;;;;;;;4.72;1.42;;;10.00;99.90;;;;;;5067384;28;20525;-90
2024/02/17 10:26:53;;;;;;;3.63;1.40;;;10.00;99.90;;;;;;5069366;28;20174;-89
2024/02/17 10:29:22;;;;;;;2.05;1.40;;;10.10;99.90;;;;;;5049213;28;20193;-90
2024/02/17 10:31:48;;;;;;;4.43;1.70;;;10.00;99.90;;;;;;5072137;28;20177;-89
2024/02/17 10:34:14;;;;;;;1.98;1.25;;;10.00;99.90;;;;;;5043543;28;20770;-90
2024/02/17 10:36:41;;;;;;;3.72;1.23;;;10.10;99.90;;;;;;5070915;28;20184;-90
2024/02/17 10:39:20;;;;;;;3.33;1.00;;;10.20;99.90;;;;;;5051244;28;20181;-90
2024/02/17 10:41:47;;;;;;;2.78;1.02;;;10.30;99.90;;;;;;5063279;28;20223;-90
2024/02/17 10:44:13;;;;;;;2.65;1.17;;;10.50;99.90;;;;;;5070139;28;20686;-90
2024/02/17 10:46:44;;;;;;;1.60;1.08;;;10.60;99.90;;;;;;5057211;28;20174;-89
2024/02/17 10:49:15;;;;;;;3.70;1.30;;;10.60;99.90;;;;;;5056323;28;20178;-90
2024/02/17 10:52:05;;;;;;;4.28;1.20;;;10.70;99.90;;;;;;5048179;28;20277;-89
2024/02/17 10:54:44;;;;;;;2.53;1.08;;;10.60;99.90;;;;;;5041617;28;20182;-89
2024/02/17 10:57:13;;;;;;;3.45;1.40;;;10.40;99.90;;;;;;5070722;28;20238;-89
2024/02/17 10:59:43;;;;;;;2.17;1.50;;;10.10;99.90;;;;;;5054680;28;20181;-89
2024/02/17 11:02:13;;;;;;;4.75;1.55;;;10.10;99.90;;;;;;5045188;28;20238;-89
2024/02/17 11:04:40;;;;;;;2.83;1.45;;;10.00;99.90;;;;;;5058246;28;20203;-90
2024/02/17 11:07:06;;;;;;;2.92;1.75;;;10.10;99.90;;;;;;5078575;28;20177;-87
2024/02/17 11:09:41;;;;;;;2.33;1.20;;;10.10;99.90;;;;;;5055192;28;20186;-89
2024/02/17 11:12:26;;;;;;;2.45;1.20;;;10.00;99.90;;;;;;5056402;28;20180;-89
2024/02/17 11:14:59;;;;;;;3.42;1.50;;;10.10;99.90;;;;;;5073226;28;20211;-88
2024/02/17 11:17:25;;;;;;;3.08;1.40;;;10.10;99.90;;;;;;5067266;28;20269;-87
2024/02/17 11:20:07;;;;;;;3.42;1.50;;;10.00;99.90;;;;;;5063586;28;20181;-89
2024/02/17 11:22:34;;;;;;;2.60;1.25;;;9.90;99.90;;;;;;5049963;28;20174;-88
2024/02/17 11:25:04;;;;;;;3.20;1.38;;;9.80;99.90;;;;;;5067519;28;20266;-89
2024/02/17 11:27:31;;;;;;;3.47;1.20;;;10.00;99.90;;;;;;5069920;28;20181;-89
2024/02/17 11:30:05;;;;;;;2.20;1.30;;;10.00;99.90;;;;;;5058543;28;20227;-89
2024/02/17 11:32:31;;;;;;;3.10;1.33;;;10.00;99.90;;;;;;5055373;28;20206;-88
2024/02/17 11:34:59;;;;;;;1.70;1.27;;;10.00;99.90;;;;;;5045798;28;20213;-89
2024/02/17 11:37:27;;;;;;;1.70;1.15;;;9.90;99.90;;;;;;5041347;28;20763;-89
2024/02/17 11:40:00;;;;;;;4.57;1.02;;;9.90;99.90;;;;;;5043618;28;20181;-89
2024/02/17 11:42:26;;;;;;;2.58;1.20;;;9.80;99.90;;;;;;5059281;28;20173;-89
2024/02/17 11:44:54;;;;;;;2.15;0.80;;;9.90;99.90;;;;;;5064584;28;20271;-88
2024/02/17 11:47:20;;;;;;;1.52;0.80;;;10.10;99.90;;;;;;5042793;28;20565;-88
2024/02/17 11:49:46;;;;;;;2.10;0.90;;;10.10;99.90;;;;;;5058219;28;20207;-88
2024/02/17 11:52:13;;;;;;;2.17;1.00;;;10.10;99.90;;;;;;5041126;28;20181;-89
2024/02/17 11:54:40;;;;;;;1.85;0.90;;;10.00;99.90;;;;;;5057277;28;20185;-88
2024/02/17 11:57:07;;;;;;;2.10;0.93;;;10.00;99.90;;;;;;5055199;28;20210;-89
2024/02/17 11:59:36;;;;;;;2.80;0.70;;;10.00;99.90;;;;;;5051552;28;20178;-90
2024/02/17 12:02:14;;;;;;;2.38;1.08;;;9.80;99.90;;;;;;5052418;28;20178;-89
2024/02/17 12:04:40;;;;;;;0.82;0.52;;;9.80;99.90;;;;;;5052436;28;20531;-90
2024/02/17 12:07:06;;;;;;;1.17;0.70;;;9.80;99.90;;;;;;5066698;28;20615;-89
2024/02/17 12:09:33;;;;;;;2.30;0.75;;;9.70;99.90;;;;;;5038144;28;20177;-90
2024/02/17 12:12:02;;;;;;;1.55;0.77;;;9.70;99.90;;;;;;5038158;28;20181;-90
2024/02/17 12:14:28;;;;;;;1.70;0.70;;;9.60;99.90;;;;;;5047926;28;20177;-90
2024/02/17 12:16:53;;;;;;;1.75;0.68;;;9.60;99.90;;;;;;5057500;28;20176;-90
2024/02/17 12:19:19;;;;;;;3.53;0.80;;;9.70;99.90;;;;;;5038067;28;20243;-90
2024/02/17 12:21:46;;;;;;;1.35;0.60;;;9.70;99.90;;;;;;5042394;28;20186;-90
2024/02/17 12:24:12;;;;;;;1.05;0.60;;;9.70;99.90;;;;;;5055980;28;20202;-90
2024/02/17 12:26:38;;;;;;;1.73;0.65;;;9.70;99.90;;;;;;5062688;28;20578;-90
2024/02/17 12:29:05;;;;;;;0.85;0.60;;;9.60;99.90;;;;;;5049288;28;20190;-90
2024/02/17 12:31:33;;;;;;;2.15;0.50;;;9.70;99.90;;;;;;5045657;28;20174;-90
2024/02/17 12:33:58;;;;;;;1.70;0.60;;;9.70;99.90;;;;;;5050079;28;20516;-89
2024/02/17 12:36:24;;;;;;;1.02;0.40;;;9.70;99.90;;;;;;5046452;28;20184;-88
2024/02/17 12:39:00;;;;;;;2.33;0.70;;;9.70;99.90;;;;;;5043980;28;20177;-90
2024/02/17 12:41:35;;;;;;;1.90;0.52;;;9.70;99.90;;;;;;5045833;28;20181;-90
2024/02/17 12:44:01;;;;;;;2.10;0.82;;;9.70;99.90;;;;;;5037294;28;20268;-89
2024/02/17 12:46:28;;;;;;;2.05;0.50;;;10.00;99.90;;;;;;5043900;28;20186;-90
2024/02/17 12:48:55;;;;;;;1.48;0.50;;;10.00;99.90;;;;;;5049098;28;20177;-90
2024/02/17 12:51:25;;;;;;;3.55;0.70;;;10.00;99.90;;;;;;5057250;28;20177;-89